Terminal Aerodrome Forecast
Issued by NWS Jackson, MS

Home | Current Version | Previous Version | Text Only | Print | Product List | Glossary On
Versions: 1 2 3 4 5 6 7 8 9 10 11 12 13 14 15 16 17 18
653
FTUS44 KJAN 250336 AAA
TAFMEI
TAF AMD
KMEI 250336Z 2504/2524 20009KT P6SM BKN070
     FM250700 20007KT P6SM VCTS BKN025CB
     FM250900 31010KT P6SM SCT035
     FM251700 32012G16KT P6SM SKC=

USA.gov is the U.S. government's official web portal to all federal, state and local government web resources and services.